createdAt,value
2023-06-03T00:00:57.810Z,727.00
2023-06-03T00:01:57.801Z,727.00
2023-06-03T00:02:57.884Z,727.00
2023-06-03T00:03:57.864Z,727.00
2023-06-03T00:04:57.840Z,727.00
2023-06-03T00:05:57.715Z,727.00
2023-06-03T00:06:57.705Z,727.00
2023-06-03T00:07:57.711Z,727.00
2023-06-03T00:08:57.693Z,727.00
2023-06-03T00:09:57.688Z,727.00
2023-06-03T00:10:57.682Z,727.00
2023-06-03T00:11:57.655Z,727.00
2023-06-03T00:12:57.620Z,727.00
2023-06-03T00:13:57.653Z,727.00
2023-06-03T00:14:57.683Z,727.00
2023-06-03T00:15:57.710Z,727.00
2023-06-03T00:16:57.758Z,727.00
2023-06-03T00:17:57.611Z,727.00
2023-06-03T00:18:57.583Z,727.00
2023-06-03T00:19:57.549Z,727.00
2023-06-03T00:20:57.549Z,726.00
2023-06-03T00:21:57.510Z,726.00
2023-06-03T00:22:57.523Z,727.00
2023-06-03T00:23:57.559Z,727.00
2023-06-03T00:24:57.464Z,726.00
2023-06-03T00:25:57.464Z,726.00
2023-06-03T00:26:57.455Z,726.00
2023-06-03T00:27:57.446Z,726.00
2023-06-03T00:28:57.466Z,726.00
2023-06-03T00:29:57.424Z,726.00
2023-06-03T00:30:57.394Z,726.00
2023-06-03T00:31:57.451Z,726.00
2023-06-03T00:32:57.432Z,726.00
2023-06-03T00:33:57.414Z,726.00
2023-06-03T00:34:57.390Z,726.00
2023-06-03T00:35:57.315Z,726.00
2023-06-03T00:36:57.334Z,726.00
2023-06-03T00:37:57.297Z,726.00
2023-06-03T00:38:57.327Z,726.00
2023-06-03T00:39:57.321Z,726.00
2023-06-03T00:40:57.281Z,726.00
2023-06-03T00:41:57.255Z,726.00
2023-06-03T00:42:57.268Z,725.00
2023-06-03T00:43:57.211Z,725.00
2023-06-03T00:44:57.248Z,726.00
2023-06-03T00:45:57.247Z,726.00
2023-06-03T00:46:57.201Z,726.00
2023-06-03T00:47:57.216Z,726.00
2023-06-03T00:48:57.148Z,725.00
2023-06-03T00:49:57.172Z,725.00
2023-06-03T00:50:57.154Z,725.00
2023-06-03T00:51:57.107Z,725.00
2023-06-03T00:52:57.148Z,725.00
2023-06-03T00:53:57.081Z,725.00
2023-06-03T00:54:57.072Z,725.00
2023-06-03T00:55:57.049Z,725.00
2023-06-03T00:56:57.074Z,725.00
2023-06-03T00:57:57.049Z,725.00
2023-06-03T00:58:57.609Z,725.00
2023-06-03T00:59:57.061Z,725.00
2023-06-03T01:00:57.020Z,725.00
2023-06-03T01:01:57.026Z,725.00
2023-06-03T01:02:57.054Z,725.00
2023-06-03T01:03:56.952Z,725.00
2023-06-03T01:04:56.930Z,725.00
2023-06-03T01:05:56.932Z,725.00
2023-06-03T01:06:56.942Z,725.00
2023-06-03T01:07:56.888Z,725.00
2023-06-03T01:08:56.889Z,725.00
2023-06-03T01:09:56.884Z,725.00
2023-06-03T01:10:56.874Z,725.00
2023-06-03T01:11:56.872Z,725.00
2023-06-03T01:12:56.851Z,725.00
2023-06-03T01:13:56.843Z,725.00
2023-06-03T01:14:56.827Z,725.00
2023-06-03T01:15:56.863Z,725.00
2023-06-03T01:16:56.788Z,725.00
2023-06-03T01:17:56.799Z,725.00
2023-06-03T01:18:56.774Z,725.00
2023-06-03T01:19:56.726Z,725.00
2023-06-03T01:20:56.736Z,725.00
2023-06-03T01:21:56.701Z,725.00
2023-06-03T01:22:56.705Z,725.00
2023-06-03T01:23:56.727Z,725.00
2023-06-03T01:24:56.715Z,725.00
2023-06-03T01:25:56.679Z,725.00
2023-06-03T01:26:56.653Z,725.00
2023-06-03T01:27:56.657Z,725.00
2023-06-03T01:28:56.637Z,725.00
2023-06-03T01:29:56.613Z,725.00
2023-06-03T01:30:56.647Z,725.00
2023-06-03T01:31:56.569Z,725.00
2023-06-03T01:32:56.613Z,725.00
2023-06-03T01:33:56.587Z,725.00
2023-06-03T01:34:56.541Z,725.00
2023-06-03T01:35:56.511Z,725.00
2023-06-03T01:36:56.535Z,725.00
2023-06-03T01:37:56.503Z,725.00
2023-06-03T01:38:56.525Z,725.00
2023-06-03T01:39:56.486Z,725.00
2023-06-03T01:40:56.471Z,725.00
2023-06-03T01:41:56.451Z,725.00
2023-06-03T01:42:56.463Z,725.00
2023-06-03T01:43:56.416Z,725.00
2023-06-03T01:44:56.440Z,725.00
2023-06-03T01:45:56.414Z,725.00
2023-06-03T01:46:56.443Z,725.00
2023-06-03T01:47:56.397Z,725.00
2023-06-03T01:48:56.349Z,725.00
2023-06-03T01:49:56.382Z,725.00
2023-06-03T01:50:56.365Z,725.00
2023-06-03T01:51:56.327Z,725.00
2023-06-03T01:52:56.339Z,725.00
2023-06-03T01:53:56.282Z,724.00
2023-06-03T01:54:56.289Z,725.00
2023-06-03T01:55:56.278Z,724.00
2023-06-03T01:56:56.270Z,724.00
2023-06-03T01:57:56.217Z,724.00
2023-06-03T01:58:56.260Z,724.00
2023-06-03T01:59:56.213Z,724.00
2023-06-03T02:00:56.215Z,724.00
2023-06-03T02:01:56.205Z,725.00
2023-06-03T02:02:56.183Z,725.00
2023-06-03T02:03:56.158Z,725.00
2023-06-03T02:04:56.137Z,725.00
2023-06-03T02:05:56.153Z,725.00
2023-06-03T02:06:56.122Z,725.00
2023-06-03T02:07:56.084Z,725.00
2023-06-03T02:08:56.101Z,725.00
2023-06-03T02:09:56.097Z,725.00
2023-06-03T02:10:56.088Z,725.00
2023-06-03T02:11:56.071Z,725.00
2023-06-03T02:12:56.064Z,725.00
2023-06-03T02:13:56.036Z,725.00
2023-06-03T02:14:56.028Z,725.00
2023-06-03T02:15:56.007Z,725.00
2023-06-03T02:16:56.085Z,725.00
2023-06-03T02:17:55.988Z,725.00
2023-06-03T02:18:56.012Z,725.00
2023-06-03T02:19:55.976Z,725.00
2023-06-03T02:20:55.930Z,725.00
2023-06-03T02:21:55.924Z,725.00
2023-06-03T02:22:55.991Z,725.00
2023-06-03T02:23:55.947Z,724.00
2023-06-03T02:24:55.878Z,724.00
2023-06-03T02:25:55.847Z,725.00
2023-06-03T02:26:55.847Z,724.00
2023-06-03T02:27:55.857Z,724.00
2023-06-03T02:28:55.841Z,724.00
2023-06-03T02:29:55.846Z,724.00
2023-06-03T02:30:55.802Z,724.00
2023-06-03T02:31:55.807Z,724.00
2023-06-03T02:32:55.818Z,724.00
2023-06-03T02:33:55.763Z,725.00
2023-06-03T02:34:55.767Z,724.00
2023-06-03T02:35:55.745Z,724.00
2023-06-03T02:36:55.733Z,725.00
2023-06-03T02:37:55.708Z,724.00
2023-06-03T02:38:55.707Z,724.00
2023-06-03T02:39:55.731Z,724.00
2023-06-03T02:40:55.657Z,724.00
2023-06-03T02:41:55.645Z,724.00
2023-06-03T02:42:55.625Z,724.00
2023-06-03T02:43:55.649Z,724.00
2023-06-03T02:44:55.599Z,724.00
2023-06-03T02:45:55.645Z,724.00
2023-06-03T02:46:55.576Z,724.00
2023-06-03T02:47:55.632Z,724.00
2023-06-03T02:48:55.577Z,724.00
2023-06-03T02:49:55.548Z,724.00
2023-06-03T02:50:55.533Z,724.00
2023-06-03T02:51:55.548Z,724.00
2023-06-03T02:52:55.542Z,724.00
2023-06-03T02:53:55.517Z,724.00
2023-06-03T02:54:55.515Z,724.00
2023-06-03T02:55:55.459Z,724.00
2023-06-03T02:56:55.446Z,724.00
2023-06-03T02:57:55.448Z,724.00
2023-06-03T02:58:55.416Z,724.00
2023-06-03T02:59:55.419Z,724.00
2023-06-03T03:00:55.436Z,724.00
2023-06-03T03:01:55.452Z,724.00
2023-06-03T03:02:55.419Z,724.00
2023-06-03T03:03:55.396Z,725.00
2023-06-03T03:04:55.337Z,725.00
2023-06-03T03:05:55.393Z,724.00
2023-06-03T03:06:55.376Z,724.00
2023-06-03T03:07:55.335Z,724.00
2023-06-03T03:08:57.881Z,724.00
2023-06-03T03:09:55.303Z,724.00
2023-06-03T03:10:55.252Z,724.00
2023-06-03T03:11:55.267Z,724.00
2023-06-03T03:12:55.236Z,724.00
2023-06-03T03:13:55.218Z,724.00
2023-06-03T03:14:55.261Z,725.00
2023-06-03T03:15:55.228Z,724.00
2023-06-03T03:16:55.202Z,725.00
2023-06-03T03:17:55.217Z,725.00
2023-06-03T03:18:55.171Z,725.00
2023-06-03T03:19:55.140Z,725.00
2023-06-03T03:20:55.160Z,725.00
2023-06-03T03:21:55.181Z,725.00
2023-06-03T03:22:55.115Z,725.00
2023-06-03T03:23:55.152Z,725.00
2023-06-03T03:24:55.085Z,725.00
2023-06-03T03:25:55.121Z,725.00
2023-06-03T03:26:55.070Z,725.00
2023-06-03T03:27:55.048Z,725.00
2023-06-03T03:28:55.141Z,725.00
2023-06-03T03:29:55.036Z,725.00
2023-06-03T03:30:54.999Z,725.00
2023-06-03T03:31:55.080Z,725.00
2023-06-03T03:32:55.047Z,725.00
2023-06-03T03:33:54.969Z,725.00
2023-06-03T03:34:54.971Z,725.00
2023-06-03T03:35:54.932Z,725.00
2023-06-03T03:36:54.930Z,726.00
2023-06-03T03:37:54.901Z,726.00
2023-06-03T03:38:54.891Z,726.00
2023-06-03T03:39:54.875Z,725.00
2023-06-03T03:40:54.891Z,725.00
2023-06-03T03:41:54.878Z,726.00
2023-06-03T03:42:54.837Z,726.00
2023-06-03T03:43:54.863Z,726.00
2023-06-03T03:44:54.820Z,726.00
2023-06-03T03:45:54.807Z,726.00
2023-06-03T03:46:54.799Z,726.00
2023-06-03T03:47:54.802Z,726.00
2023-06-03T03:48:54.751Z,726.00
2023-06-03T03:49:54.746Z,726.00
2023-06-03T03:50:54.727Z,726.00
2023-06-03T03:51:54.711Z,726.00
2023-06-03T03:52:54.689Z,726.00
2023-06-03T03:53:54.711Z,726.00
2023-06-03T03:54:54.751Z,726.00
2023-06-03T03:55:54.672Z,726.00
2023-06-03T03:56:54.664Z,726.00
2023-06-03T03:57:54.685Z,726.00
2023-06-03T03:58:54.639Z,726.00
2023-06-03T03:59:54.628Z,726.00
2023-06-03T04:00:54.608Z,726.00
2023-06-03T04:01:54.612Z,726.00
2023-06-03T04:02:54.598Z,726.00
2023-06-03T04:03:54.613Z,727.00
2023-06-03T04:04:54.554Z,726.00
2023-06-03T04:05:54.548Z,726.00
2023-06-03T04:06:54.512Z,726.00
2023-06-03T04:07:54.518Z,726.00
2023-06-03T04:08:54.480Z,726.00
2023-06-03T04:09:54.490Z,727.00
2023-06-03T04:10:54.493Z,727.00
2023-06-03T04:11:54.466Z,727.00
2023-06-03T04:12:54.433Z,727.00
2023-06-03T04:13:54.434Z,727.00
2023-06-03T04:14:54.401Z,727.00
2023-06-03T04:15:54.467Z,727.00
2023-06-03T04:16:54.411Z,727.00
2023-06-03T04:17:54.462Z,727.00
2023-06-03T04:18:54.406Z,727.00
2023-06-03T04:19:54.343Z,727.00
2023-06-03T04:20:54.324Z,727.00
2023-06-03T04:21:54.345Z,727.00
2023-06-03T04:22:54.304Z,727.00
2023-06-03T04:23:54.311Z,727.00
2023-06-03T04:24:54.267Z,727.00
2023-06-03T04:25:54.258Z,727.00
2023-06-03T04:26:54.265Z,727.00
2023-06-03T04:27:54.276Z,727.00
2023-06-03T04:28:54.238Z,727.00
2023-06-03T04:29:54.224Z,727.00
2023-06-03T04:30:54.226Z,727.00
2023-06-03T04:31:54.244Z,727.00
2023-06-03T04:32:54.208Z,728.00
2023-06-03T04:33:54.170Z,728.00
2023-06-03T04:34:54.176Z,728.00
2023-06-03T04:35:54.178Z,728.00
2023-06-03T04:36:54.116Z,728.00
2023-06-03T04:37:54.130Z,728.00
2023-06-03T04:38:54.086Z,728.00
2023-06-03T04:39:54.118Z,728.00
2023-06-03T04:40:54.071Z,728.00
2023-06-03T04:41:54.075Z,728.00
2023-06-03T04:42:54.062Z,729.00
2023-06-03T04:43:54.055Z,729.00
2023-06-03T04:44:54.037Z,729.00
2023-06-03T04:45:54.030Z,729.00
2023-06-03T04:46:54.044Z,729.00
2023-06-03T04:47:54.088Z,730.00
2023-06-03T04:48:53.978Z,730.00
2023-06-03T04:49:53.981Z,730.00
2023-06-03T04:50:54.001Z,730.00
2023-06-03T04:51:53.946Z,730.00
2023-06-03T04:52:53.897Z,730.00
2023-06-03T04:53:53.897Z,730.00
2023-06-03T04:54:53.882Z,730.00
2023-06-03T04:55:53.875Z,730.00
2023-06-03T04:56:53.864Z,730.00
2023-06-03T04:57:53.841Z,730.00
2023-06-03T04:58:53.835Z,731.00
2023-06-03T04:59:53.819Z,731.00
2023-06-03T05:00:53.808Z,731.00
2023-06-03T05:01:53.929Z,731.00
2023-06-03T05:02:53.891Z,732.00
2023-06-03T05:03:53.782Z,732.00
2023-06-03T05:04:53.770Z,732.00
2023-06-03T05:05:53.749Z,733.00
2023-06-03T05:06:53.718Z,733.00
2023-06-03T05:07:53.730Z,733.00
2023-06-03T05:08:53.726Z,733.00
2023-06-03T05:09:53.695Z,734.00
2023-06-03T05:10:53.681Z,734.00
2023-06-03T05:11:53.690Z,734.00
2023-06-03T05:12:53.639Z,734.00
2023-06-03T05:13:53.636Z,734.00
2023-06-03T05:14:53.612Z,734.00
2023-06-03T05:15:53.622Z,734.00
2023-06-03T05:16:53.631Z,734.00
2023-06-03T05:17:53.643Z,734.00
2023-06-03T05:18:53.567Z,734.00
2023-06-03T05:19:53.569Z,734.00
2023-06-03T05:20:53.543Z,734.00
2023-06-03T05:21:53.527Z,735.00
2023-06-03T05:22:53.530Z,735.00
2023-06-03T05:23:53.657Z,735.00
2023-06-03T05:24:53.478Z,735.00
2023-06-03T05:25:53.512Z,735.00
2023-06-03T05:26:53.477Z,735.00
2023-06-03T05:28:03.045Z,735.00
2023-06-03T05:28:53.422Z,735.00
2023-06-03T05:29:53.416Z,735.00
2023-06-03T05:30:53.412Z,735.00
2023-06-03T05:31:53.447Z,736.00
2023-06-03T05:32:53.506Z,735.00
2023-06-03T05:33:53.364Z,736.00
2023-06-03T05:34:53.373Z,736.00
2023-06-03T05:35:53.339Z,736.00
2023-06-03T05:36:53.321Z,736.00
2023-06-03T05:37:53.320Z,736.00
2023-06-03T05:38:53.308Z,737.00
2023-06-03T05:39:53.286Z,737.00
2023-06-03T05:40:53.287Z,737.00
2023-06-03T05:41:53.265Z,738.00
2023-06-03T05:42:53.273Z,738.00
2023-06-03T05:43:53.265Z,738.00
2023-06-03T05:44:53.236Z,738.00
2023-06-03T05:45:53.277Z,739.00
2023-06-03T05:46:53.192Z,739.00
2023-06-03T05:47:53.267Z,739.00
2023-06-03T05:48:53.192Z,740.00
2023-06-03T05:49:53.193Z,740.00
2023-06-03T05:50:53.158Z,741.00
2023-06-03T05:51:53.181Z,741.00
2023-06-03T05:52:53.129Z,741.00
2023-06-03T05:53:53.151Z,741.00
2023-06-03T05:54:53.116Z,742.00
2023-06-03T05:55:53.109Z,742.00
2023-06-03T05:56:53.091Z,742.00
2023-06-03T05:57:53.089Z,742.00
2023-06-03T05:58:53.034Z,742.00
2023-06-03T05:59:53.045Z,742.00
2023-06-03T06:00:53.038Z,743.00
2023-06-03T06:01:53.026Z,743.00
2023-06-03T06:02:53.091Z,743.00
2023-06-03T06:03:53.694Z,743.00
2023-06-03T06:04:53.055Z,743.00
2023-06-03T06:05:52.966Z,744.00
2023-06-03T06:06:52.954Z,744.00
2023-06-03T06:07:52.930Z,744.00
2023-06-03T06:08:52.911Z,744.00
2023-06-03T06:09:52.909Z,744.00
2023-06-03T06:10:52.871Z,745.00
2023-06-03T06:11:52.870Z,745.00
2023-06-03T06:12:52.869Z,745.00
2023-06-03T06:13:52.860Z,745.00
2023-06-03T06:14:52.818Z,745.00
2023-06-03T06:15:52.879Z,745.00
2023-06-03T06:16:52.806Z,746.00
2023-06-03T06:17:52.855Z,746.00
2023-06-03T06:18:52.752Z,746.00
2023-06-03T06:19:52.772Z,746.00
2023-06-03T06:20:52.742Z,746.00
2023-06-03T06:21:52.728Z,746.00
2023-06-03T06:22:52.733Z,746.00
2023-06-03T06:23:52.792Z,747.00
2023-06-03T06:24:52.688Z,747.00
2023-06-03T06:25:52.679Z,747.00
2023-06-03T06:26:52.658Z,748.00
2023-06-03T06:27:52.641Z,748.00
2023-06-03T06:28:52.651Z,749.00
2023-06-03T06:29:52.607Z,749.00
2023-06-03T06:30:52.613Z,749.00
2023-06-03T06:31:52.674Z,749.00
2023-06-03T06:32:52.698Z,749.00
2023-06-03T06:33:52.560Z,749.00
2023-06-03T06:34:52.554Z,749.00
2023-06-03T06:35:52.538Z,749.00
2023-06-03T06:36:52.528Z,750.00
2023-06-03T06:37:52.549Z,750.00
2023-06-03T06:38:52.508Z,750.00
2023-06-03T06:39:52.506Z,750.00
2023-06-03T06:40:52.489Z,750.00
2023-06-03T06:41:52.468Z,751.00
2023-06-03T06:42:52.428Z,751.00
2023-06-03T06:43:52.422Z,751.00
2023-06-03T06:44:52.409Z,752.00
2023-06-03T06:45:52.451Z,752.00
2023-06-03T06:46:52.395Z,752.00
2023-06-03T06:47:52.406Z,752.00
2023-06-03T06:48:52.363Z,752.00
2023-06-03T06:49:52.351Z,752.00
2023-06-03T06:50:52.350Z,751.00
2023-06-03T06:51:52.326Z,751.00
2023-06-03T06:52:52.307Z,752.00
2023-06-03T06:53:52.308Z,752.00
2023-06-03T06:54:52.300Z,753.00
2023-06-03T06:55:52.278Z,753.00
2023-06-03T06:56:52.269Z,753.00
2023-06-03T06:57:52.330Z,753.00
2023-06-03T06:58:52.272Z,754.00
2023-06-03T06:59:52.239Z,754.00
2023-06-03T07:00:52.261Z,754.00
2023-06-03T07:01:52.253Z,753.00
2023-06-03T07:02:52.251Z,753.00
2023-06-03T07:03:52.207Z,753.00
2023-06-03T07:04:52.156Z,753.00
2023-06-03T07:05:52.125Z,754.00
2023-06-03T07:06:52.123Z,754.00
2023-06-03T07:07:52.094Z,755.00
2023-06-03T07:08:52.111Z,755.00
2023-06-03T07:09:52.100Z,755.00
2023-06-03T07:10:52.088Z,755.00
2023-06-03T07:11:52.043Z,756.00
2023-06-03T07:12:52.051Z,756.00
2023-06-03T07:13:52.056Z,756.00
2023-06-03T07:14:52.009Z,756.00
2023-06-03T07:15:52.005Z,756.00
2023-06-03T07:16:52.063Z,756.00
2023-06-03T07:17:52.023Z,757.00
2023-06-03T07:18:51.976Z,757.00
2023-06-03T07:19:51.942Z,757.00
2023-06-03T07:20:51.927Z,757.00
2023-06-03T07:21:51.940Z,757.00
2023-06-03T07:22:51.955Z,757.00
2023-06-03T07:23:51.966Z,757.00
2023-06-03T07:24:51.895Z,757.00
2023-06-03T07:25:51.891Z,758.00
2023-06-03T07:26:51.892Z,758.00
2023-06-03T07:27:51.877Z,758.00
2023-06-03T07:28:51.863Z,758.00
2023-06-03T07:29:51.804Z,759.00
2023-06-03T07:30:51.799Z,759.00
2023-06-03T07:31:51.876Z,759.00
2023-06-03T07:32:51.800Z,759.00
2023-06-03T07:33:51.814Z,759.00
2023-06-03T07:34:51.738Z,759.00
2023-06-03T07:35:51.717Z,759.00
2023-06-03T07:36:51.714Z,759.00
2023-06-03T07:37:51.707Z,759.00
2023-06-03T07:38:51.681Z,760.00
2023-06-03T07:39:51.687Z,760.00
2023-06-03T07:40:51.655Z,759.00
2023-06-03T07:41:51.752Z,759.00
2023-06-03T07:42:51.648Z,759.00
2023-06-03T07:43:51.641Z,759.00
2023-06-03T07:44:51.619Z,760.00
2023-06-03T07:45:51.604Z,760.00
2023-06-03T07:46:51.626Z,760.00
2023-06-03T07:47:51.564Z,761.00
2023-06-03T07:48:51.632Z,762.00
2023-06-03T07:49:51.568Z,762.00
2023-06-03T07:50:51.541Z,762.00
2023-06-03T07:51:51.557Z,761.00
2023-06-03T07:52:51.493Z,760.00
2023-06-03T07:53:51.492Z,759.00
2023-06-03T07:54:51.463Z,758.00
2023-06-03T07:55:51.476Z,758.00
2023-06-03T07:56:51.459Z,758.00
2023-06-03T07:57:51.415Z,758.00
2023-06-03T07:58:51.417Z,758.00
2023-06-03T07:59:51.398Z,758.00
2023-06-03T08:00:51.380Z,758.00
2023-06-03T08:01:51.401Z,758.00
2023-06-03T08:02:51.535Z,758.00
2023-06-03T08:03:51.331Z,758.00
2023-06-03T08:04:51.356Z,758.00
2023-06-03T08:05:51.306Z,758.00
2023-06-03T08:06:51.359Z,758.00
2023-06-03T08:07:51.303Z,758.00
2023-06-03T08:08:51.269Z,759.00
2023-06-03T08:09:51.261Z,758.00
2023-06-03T08:10:51.266Z,758.00
2023-06-03T08:11:51.249Z,758.00
2023-06-03T08:12:51.232Z,758.00
2023-06-03T08:13:51.203Z,758.00
2023-06-03T08:14:51.223Z,759.00
2023-06-03T08:15:51.205Z,758.00
2023-06-03T08:16:51.209Z,758.00
2023-06-03T08:17:51.224Z,759.00
2023-06-03T08:18:51.143Z,758.00
2023-06-03T08:19:51.154Z,758.00
2023-06-03T08:20:51.138Z,758.00
2023-06-03T08:21:51.100Z,758.00
2023-06-03T08:22:51.118Z,758.00
2023-06-03T08:23:51.136Z,759.00
2023-06-03T08:24:51.099Z,759.00
2023-06-03T08:25:51.061Z,759.00
2023-06-03T08:26:51.080Z,759.00
2023-06-03T08:27:51.051Z,759.00
2023-06-03T08:28:51.036Z,759.00
2023-06-03T08:29:51.021Z,759.00
2023-06-03T08:30:51.006Z,759.00
2023-06-03T08:31:51.118Z,759.00
2023-06-03T08:32:51.040Z,759.00
2023-06-03T08:33:50.963Z,759.00
2023-06-03T08:34:50.955Z,759.00
2023-06-03T08:35:50.917Z,759.00
2023-06-03T08:36:50.930Z,759.00
2023-06-03T08:37:50.939Z,760.00
2023-06-03T08:38:50.915Z,760.00
2023-06-03T08:39:50.872Z,760.00
2023-06-03T08:40:50.886Z,760.00
2023-06-03T08:41:50.855Z,760.00
2023-06-03T08:42:50.855Z,760.00
2023-06-03T08:43:50.822Z,760.00
2023-06-03T08:44:50.837Z,760.00
2023-06-03T08:45:50.817Z,760.00
2023-06-03T08:46:50.799Z,760.00
2023-06-03T08:47:50.826Z,760.00
2023-06-03T08:48:50.771Z,760.00
2023-06-03T08:49:50.754Z,760.00
2023-06-03T08:50:50.729Z,760.00
2023-06-03T08:51:50.724Z,760.00
2023-06-03T08:52:50.697Z,760.00
2023-06-03T08:53:50.699Z,760.00
2023-06-03T08:54:50.675Z,760.00
2023-06-03T08:55:50.649Z,759.00
2023-06-03T08:56:50.646Z,759.00
2023-06-03T08:57:50.629Z,759.00
2023-06-03T08:58:50.634Z,759.00
2023-06-03T08:59:50.616Z,759.00
2023-06-03T09:00:50.587Z,759.00
2023-06-03T09:01:50.656Z,759.00
2023-06-03T09:02:50.637Z,759.00
2023-06-03T09:03:50.591Z,759.00
2023-06-03T09:04:50.542Z,759.00
2023-06-03T09:05:50.545Z,760.00
2023-06-03T09:06:50.552Z,760.00
2023-06-03T09:07:50.492Z,759.00
2023-06-03T09:08:50.522Z,759.00
2023-06-03T09:09:50.488Z,759.00
2023-06-03T09:10:50.476Z,759.00
2023-06-03T09:11:50.437Z,760.00
2023-06-03T09:12:50.449Z,760.00
2023-06-03T09:13:50.416Z,760.00
2023-06-03T09:14:50.418Z,760.00
2023-06-03T09:15:50.476Z,760.00
2023-06-03T09:16:50.398Z,761.00
2023-06-03T09:17:50.372Z,762.00
2023-06-03T09:18:50.386Z,762.00
2023-06-03T09:19:50.343Z,763.00
2023-06-03T09:20:50.346Z,763.00
2023-06-03T09:21:50.316Z,763.00
2023-06-03T09:22:50.318Z,763.00
2023-06-03T09:23:50.310Z,763.00
2023-06-03T09:24:50.310Z,763.00
2023-06-03T09:25:50.277Z,763.00
2023-06-03T09:26:50.267Z,763.00
2023-06-03T09:27:50.242Z,764.00
2023-06-03T09:28:50.318Z,764.00
2023-06-03T09:29:50.201Z,764.00
2023-06-03T09:30:50.208Z,764.00
2023-06-03T09:31:50.228Z,764.00
2023-06-03T09:32:50.248Z,764.00
2023-06-03T09:33:50.168Z,764.00
2023-06-03T09:34:50.146Z,764.00
2023-06-03T09:35:50.151Z,764.00
2023-06-03T09:36:50.138Z,764.00
2023-06-03T09:37:50.132Z,763.00
2023-06-03T09:38:50.113Z,762.00
2023-06-03T09:39:50.101Z,762.00
2023-06-03T09:40:50.072Z,762.00
2023-06-03T09:41:50.100Z,762.00
2023-06-03T09:42:50.067Z,762.00
2023-06-03T09:43:50.044Z,762.00
2023-06-03T09:44:50.016Z,763.00
2023-06-03T09:45:50.015Z,763.00
2023-06-03T09:46:50.062Z,763.00
2023-06-03T09:47:50.053Z,763.00
2023-06-03T09:48:49.969Z,762.00
2023-06-03T09:49:50.828Z,763.00
2023-06-03T09:50:49.939Z,762.00
2023-06-03T09:51:49.951Z,763.00
2023-06-03T09:52:49.936Z,763.00
2023-06-03T09:53:49.916Z,762.00
2023-06-03T09:54:49.890Z,762.00
2023-06-03T09:55:49.877Z,762.00
2023-06-03T09:56:49.906Z,762.00
2023-06-03T09:57:49.858Z,763.00
2023-06-03T09:58:49.840Z,763.00
2023-06-03T09:59:49.831Z,764.00
2023-06-03T10:00:50.145Z,764.00
2023-06-03T10:01:49.842Z,765.00
2023-06-03T10:02:49.924Z,764.00
2023-06-03T10:03:49.799Z,764.00
2023-06-03T10:04:49.782Z,764.00
2023-06-03T10:05:49.785Z,764.00
2023-06-03T10:06:49.747Z,764.00
2023-06-03T10:07:49.739Z,764.00
2023-06-03T10:08:49.744Z,765.00
2023-06-03T10:09:49.720Z,765.00
2023-06-03T10:10:49.718Z,765.00
2023-06-03T10:11:49.678Z,765.00
2023-06-03T10:12:49.668Z,765.00
2023-06-03T10:13:49.732Z,765.00
2023-06-03T10:14:49.692Z,764.00
2023-06-03T10:15:49.632Z,763.00
2023-06-03T10:16:49.678Z,763.00
2023-06-03T10:17:49.692Z,763.00
2023-06-03T10:18:49.640Z,763.00
2023-06-03T10:19:49.623Z,762.00
2023-06-03T10:20:49.576Z,762.00
2023-06-03T10:21:49.571Z,762.00
2023-06-03T10:22:49.570Z,762.00
2023-06-03T10:23:49.620Z,762.00
2023-06-03T10:24:49.539Z,762.00
2023-06-03T10:25:49.532Z,763.00
2023-06-03T10:26:49.534Z,763.00
2023-06-03T10:27:49.484Z,763.00
2023-06-03T10:28:49.484Z,764.00
2023-06-03T10:29:49.458Z,765.00
2023-06-03T10:30:49.494Z,765.00
2023-06-03T10:31:49.450Z,766.00
2023-06-03T10:32:49.480Z,766.00
2023-06-03T10:33:49.421Z,766.00
2023-06-03T10:34:49.406Z,766.00
2023-06-03T10:35:49.429Z,766.00
2023-06-03T10:36:49.437Z,766.00
2023-06-03T10:37:49.396Z,766.00
2023-06-03T10:38:49.356Z,766.00
2023-06-03T10:39:49.352Z,766.00
2023-06-03T10:40:49.344Z,765.00
2023-06-03T10:41:49.330Z,765.00
2023-06-03T10:42:49.328Z,765.00
2023-06-03T10:43:49.297Z,764.00
2023-06-03T10:44:49.300Z,764.00
2023-06-03T10:45:49.319Z,765.00
2023-06-03T10:46:49.287Z,765.00
2023-06-03T10:47:49.316Z,765.00
2023-06-03T10:48:49.266Z,765.00
2023-06-03T10:49:49.263Z,766.00
2023-06-03T10:50:49.215Z,766.00
2023-06-03T10:51:49.222Z,765.00
2023-06-03T10:52:49.201Z,765.00
2023-06-03T10:53:49.190Z,765.00
2023-06-03T10:54:49.177Z,765.00
2023-06-03T10:55:49.226Z,765.00
2023-06-03T10:56:49.157Z,765.00
2023-06-03T10:57:49.130Z,765.00
2023-06-03T10:58:49.252Z,767.00
2023-06-03T10:59:49.129Z,766.00
2023-06-03T11:00:49.132Z,766.00
2023-06-03T11:01:49.187Z,766.00
2023-06-03T11:02:49.179Z,766.00
2023-06-03T11:03:49.134Z,767.00
2023-06-03T11:04:49.079Z,767.00
2023-06-03T11:05:49.071Z,767.00
2023-06-03T11:06:49.032Z,767.00
2023-06-03T11:07:49.060Z,767.00
2023-06-03T11:08:49.026Z,767.00
2023-06-03T11:09:49.222Z,766.00
2023-06-03T11:10:49.000Z,766.00
2023-06-03T11:11:48.974Z,765.00
2023-06-03T11:12:48.991Z,765.00
2023-06-03T11:13:49.013Z,765.00
2023-06-03T11:14:48.942Z,766.00
2023-06-03T11:15:48.934Z,767.00
2023-06-03T11:16:48.944Z,767.00
2023-06-03T11:17:48.984Z,767.00
2023-06-03T11:18:48.895Z,767.00
2023-06-03T11:19:48.907Z,767.00
2023-06-03T11:20:48.871Z,767.00
2023-06-03T11:21:48.895Z,767.00
2023-06-03T11:22:48.840Z,767.00
2023-06-03T11:23:48.874Z,767.00
2023-06-03T11:24:48.839Z,767.00
2023-06-03T11:25:48.844Z,766.00
2023-06-03T11:26:48.780Z,766.00
2023-06-03T11:27:48.784Z,766.00
2023-06-03T11:28:48.767Z,766.00
2023-06-03T11:29:48.763Z,765.00
2023-06-03T11:30:48.742Z,764.00
2023-06-03T11:31:48.777Z,764.00
2023-06-03T11:32:48.794Z,765.00
2023-06-03T11:33:48.718Z,765.00
2023-06-03T11:34:48.711Z,765.00
2023-06-03T11:35:48.716Z,765.00
2023-06-03T11:36:48.683Z,766.00
2023-06-03T11:37:48.675Z,766.00
2023-06-03T11:38:48.650Z,766.00
2023-06-03T11:39:48.658Z,767.00
2023-06-03T11:40:48.626Z,767.00
2023-06-03T11:41:48.641Z,767.00
2023-06-03T11:42:48.715Z,767.00
2023-06-03T11:43:48.586Z,767.00
2023-06-03T11:44:48.580Z,768.00
2023-06-03T11:45:48.580Z,767.00
2023-06-03T11:46:48.648Z,767.00
2023-06-03T11:47:48.644Z,766.00
2023-06-03T11:48:48.578Z,766.00
2023-06-03T11:49:48.511Z,766.00
2023-06-03T11:50:48.498Z,765.00
2023-06-03T11:51:48.483Z,765.00
2023-06-03T11:52:50.561Z,765.00
2023-06-03T11:53:48.462Z,765.00
2023-06-03T11:54:48.469Z,765.00
2023-06-03T11:55:48.427Z,765.00
2023-06-03T11:56:48.441Z,766.00
2023-06-03T11:57:48.453Z,765.00
2023-06-03T11:58:48.410Z,765.00
2023-06-03T11:59:48.398Z,765.00
2023-06-03T12:00:48.381Z,764.00
2023-06-03T12:01:48.359Z,764.00
2023-06-03T12:02:48.610Z,763.00
2023-06-03T12:03:48.385Z,763.00
2023-06-03T12:04:48.336Z,764.00
2023-06-03T12:05:48.327Z,763.00
2023-06-03T12:06:48.307Z,764.00
2023-06-03T12:07:48.304Z,764.00
2023-06-03T12:08:48.266Z,764.00
2023-06-03T12:09:48.262Z,764.00
2023-06-03T12:10:48.268Z,765.00
2023-06-03T12:11:48.281Z,765.00
2023-06-03T12:12:48.229Z,765.00
2023-06-03T12:13:48.237Z,766.00
2023-06-03T12:14:48.228Z,766.00
2023-06-03T12:15:48.252Z,766.00
2023-06-03T12:16:48.182Z,766.00
2023-06-03T12:17:48.240Z,766.00
2023-06-03T12:18:48.155Z,767.00
2023-06-03T12:19:48.173Z,767.00
2023-06-03T12:20:53.991Z,767.00
2023-06-03T12:21:48.110Z,768.00
2023-06-03T12:22:48.110Z,768.00
2023-06-03T12:23:48.109Z,768.00
2023-06-03T12:24:48.068Z,768.00
2023-06-03T12:25:48.068Z,768.00
2023-06-03T12:26:48.056Z,768.00
2023-06-03T12:27:48.053Z,768.00
2023-06-03T12:28:48.018Z,768.00